Terminal Aerodrome Forecast
Issued by NWS Duluth, MN

Home | Current Version | Previous Version | Text Only | Print | Product List | Glossary On
Versions: 1 2 3 4 5 6 7 8 9 10 11 12 13 14 15 16 17
000
FTUS43 KDLH 271700
TAFINL
TAF
KINL 271735Z 2718/2818 31005KT P6SM OVC014
      TEMPO 2718/2720 OVC035
     FM272000 25007KT P6SM OVC035
     FM280000 26006KT P6SM OVC030
     FM280800 31009KT P6SM SCT020
     FM281400 36006KT P6SM SCT045=

USA.gov is the U.S. government's official web portal to all federal, state and local government web resources and services.